createdAt,value
2019-04-29T00:00:54.128Z,0.00
2019-04-29T00:01:54.116Z,0.00
2019-04-29T00:02:54.152Z,0.00
2019-04-29T00:03:54.096Z,0.00
2019-04-29T00:04:54.083Z,0.00
2019-04-29T00:05:54.080Z,0.00
2019-04-29T00:06:54.064Z,0.00
2019-04-29T00:07:54.091Z,0.00
2019-04-29T00:08:54.037Z,0.00
2019-04-29T00:09:54.026Z,0.00
2019-04-29T00:10:54.018Z,0.00
2019-04-29T00:11:54.046Z,0.00
2019-04-29T00:12:53.993Z,0.00
2019-04-29T00:13:53.983Z,0.00
2019-04-29T00:14:53.970Z,0.00
2019-04-29T00:15:53.958Z,0.00
2019-04-29T00:16:53.952Z,0.00
2019-04-29T00:17:53.980Z,0.00
2019-04-29T00:18:53.974Z,0.00
2019-04-29T00:19:53.917Z,0.00
2019-04-29T00:20:53.908Z,0.00
2019-04-29T00:21:53.933Z,0.00
2019-04-29T00:22:53.887Z,0.00
2019-04-29T00:24:03.712Z,0.00
2019-04-29T00:24:54.903Z,0.00
2019-04-29T00:25:53.850Z,0.00
2019-04-29T00:26:53.880Z,0.00
2019-04-29T00:27:53.828Z,0.00
2019-04-29T00:28:53.819Z,0.00
2019-04-29T00:29:53.805Z,0.00
2019-04-29T00:30:53.797Z,0.00
2019-04-29T00:31:53.827Z,0.00
2019-04-29T00:32:53.773Z,0.00
2019-04-29T00:33:53.802Z,0.00
2019-04-29T00:34:53.756Z,0.00
2019-04-29T00:35:53.742Z,0.00
2019-04-29T00:36:53.730Z,0.00
2019-04-29T00:37:53.761Z,0.00
2019-04-29T00:38:53.719Z,0.00
2019-04-29T00:39:53.697Z,0.00
2019-04-29T00:40:53.691Z,0.00
2019-04-29T00:41:53.722Z,0.00
2019-04-29T00:42:53.669Z,0.00
2019-04-29T00:43:53.653Z,0.00
2019-04-29T00:44:53.689Z,0.00
2019-04-29T00:45:53.676Z,0.00
2019-04-29T00:46:53.621Z,0.00
2019-04-29T00:47:53.607Z,0.00
2019-04-29T00:48:53.600Z,0.00
2019-04-29T00:49:53.584Z,0.00
2019-04-29T00:50:53.573Z,0.00
2019-04-29T00:51:53.603Z,0.00
2019-04-29T00:52:53.598Z,0.00
2019-04-29T00:53:53.541Z,0.00
2019-04-29T00:54:53.535Z,0.00
2019-04-29T00:55:53.518Z,0.00
2019-04-29T00:56:53.509Z,0.00
2019-04-29T00:57:53.496Z,0.00
2019-04-29T00:58:53.531Z,0.00
2019-04-29T00:59:53.475Z,0.00
2019-04-29T01:00:53.467Z,0.00
2019-04-29T01:01:53.451Z,0.00
2019-04-29T01:02:53.443Z,0.00
2019-04-29T01:03:53.472Z,0.00
2019-04-29T01:04:53.423Z,0.00
2019-04-29T01:05:53.408Z,0.00
2019-04-29T01:06:53.412Z,0.00
2019-04-29T01:07:53.387Z,0.00
2019-04-29T01:08:53.416Z,0.00
2019-04-29T01:09:53.362Z,0.00
2019-04-29T01:10:53.358Z,0.00
2019-04-29T01:11:53.341Z,0.00
2019-04-29T01:12:53.372Z,0.00
2019-04-29T01:13:53.368Z,0.00
2019-04-29T01:14:53.309Z,0.00
2019-04-29T01:15:53.296Z,0.00
2019-04-29T01:16:53.289Z,0.00
2019-04-29T01:17:53.274Z,0.00
2019-04-29T01:18:53.264Z,0.00
2019-04-29T01:19:53.296Z,0.00
2019-04-29T01:20:53.242Z,0.00
2019-04-29T01:21:53.231Z,0.00
2019-04-29T01:22:53.222Z,0.00
2019-04-29T01:23:53.251Z,0.00
2019-04-29T01:24:53.198Z,0.00
2019-04-29T01:25:53.187Z,0.00
2019-04-29T01:26:53.176Z,0.00
2019-04-29T01:27:53.166Z,0.00
2019-04-29T01:28:53.160Z,0.00
2019-04-29T01:29:53.187Z,0.00
2019-04-29T01:30:53.132Z,0.00
2019-04-29T01:31:53.124Z,0.00
2019-04-29T01:32:53.120Z,0.00
2019-04-29T01:33:53.165Z,0.00
2019-04-29T01:34:53.138Z,0.00
2019-04-29T01:35:53.077Z,0.00
2019-04-29T01:36:53.083Z,0.00
2019-04-29T01:37:53.095Z,0.00
2019-04-29T01:38:53.054Z,0.00
2019-04-29T01:39:53.032Z,0.00
2019-04-29T01:40:53.061Z,0.00
2019-04-29T01:41:53.050Z,0.00
2019-04-29T01:42:52.999Z,0.00
2019-04-29T01:43:53.027Z,0.00
2019-04-29T01:44:52.980Z,0.00
2019-04-29T01:45:52.977Z,0.00
2019-04-29T01:46:52.995Z,0.00
2019-04-29T01:47:52.943Z,0.00
2019-04-29T01:48:52.933Z,0.00
2019-04-29T01:49:52.922Z,0.00
2019-04-29T01:50:52.915Z,0.00
2019-04-29T01:51:52.915Z,0.00
2019-04-29T01:52:52.932Z,0.00
2019-04-29T01:53:52.877Z,0.00
2019-04-29T01:54:52.908Z,0.00
2019-04-29T01:55:52.855Z,0.00
2019-04-29T01:56:52.849Z,0.00
2019-04-29T01:57:52.834Z,0.00
2019-04-29T01:58:52.823Z,0.00
2019-04-29T01:59:52.852Z,0.00
2019-04-29T02:00:52.804Z,0.00
2019-04-29T02:01:52.801Z,0.00
2019-04-29T02:02:52.780Z,0.00
2019-04-29T02:03:52.768Z,0.00
2019-04-29T02:04:52.761Z,0.00
2019-04-29T02:05:52.811Z,0.00
2019-04-29T02:06:52.780Z,0.00
2019-04-29T02:07:52.723Z,0.00
2019-04-29T02:08:52.761Z,0.00
2019-04-29T02:09:52.712Z,0.00
2019-04-29T02:10:52.703Z,0.00
2019-04-29T02:11:52.724Z,0.00
2019-04-29T02:12:52.671Z,0.00
2019-04-29T02:13:52.658Z,0.00
2019-04-29T02:14:52.649Z,0.00
2019-04-29T02:15:52.639Z,0.00
2019-04-29T02:16:52.667Z,0.00
2019-04-29T02:17:52.614Z,0.00
2019-04-29T02:18:52.603Z,0.00
2019-04-29T02:19:52.594Z,0.00
2019-04-29T02:20:52.586Z,0.00
2019-04-29T02:21:52.576Z,0.00
2019-04-29T02:22:52.600Z,0.00
2019-04-29T02:23:52.549Z,0.00
2019-04-29T02:24:52.536Z,0.00
2019-04-29T02:25:52.527Z,0.00
2019-04-29T02:26:52.563Z,0.00
2019-04-29T02:27:52.515Z,0.00
2019-04-29T02:28:52.494Z,0.00
2019-04-29T02:29:52.490Z,0.00
2019-04-29T02:30:52.479Z,0.00
2019-04-29T02:31:52.460Z,0.00
2019-04-29T02:32:52.496Z,0.00
2019-04-29T02:33:52.438Z,0.00
2019-04-29T02:34:52.428Z,0.00
2019-04-29T02:35:52.459Z,0.00
2019-04-29T02:36:52.407Z,0.00
2019-04-29T02:37:52.398Z,0.00
2019-04-29T02:38:52.389Z,0.00
2019-04-29T02:39:52.413Z,0.00
2019-04-29T02:40:52.363Z,0.00
2019-04-29T02:41:52.355Z,0.00
2019-04-29T02:42:52.337Z,0.00
2019-04-29T02:43:52.371Z,0.00
2019-04-29T02:44:52.318Z,0.00
2019-04-29T02:45:52.304Z,0.00
2019-04-29T02:46:52.301Z,0.00
2019-04-29T02:47:52.335Z,0.00
2019-04-29T02:48:52.346Z,0.00
2019-04-29T02:49:52.259Z,0.00
2019-04-29T02:50:52.250Z,0.00
2019-04-29T02:51:52.238Z,0.00
2019-04-29T02:52:52.291Z,0.00
2019-04-29T02:53:52.217Z,0.00
2019-04-29T02:54:52.252Z,0.00
2019-04-29T02:55:52.194Z,0.00
2019-04-29T02:56:52.187Z,0.00
2019-04-29T02:57:52.172Z,0.00
2019-04-29T02:58:52.161Z,0.00
2019-04-29T02:59:52.150Z,0.00
2019-04-29T03:00:52.186Z,0.00
2019-04-29T03:01:52.505Z,0.00
2019-04-29T03:02:52.119Z,0.00
2019-04-29T03:03:52.109Z,0.00
2019-04-29T03:04:52.108Z,0.00
2019-04-29T03:05:52.085Z,0.00
2019-04-29T03:06:52.120Z,0.00
2019-04-29T03:07:52.061Z,0.00
2019-04-29T03:08:52.053Z,0.00
2019-04-29T03:09:52.048Z,0.00
2019-04-29T03:10:52.041Z,0.00
2019-04-29T03:11:52.018Z,0.00
2019-04-29T03:12:52.055Z,0.00
2019-04-29T03:13:51.996Z,0.00
2019-04-29T03:14:51.985Z,0.00
2019-04-29T03:15:51.979Z,0.00
2019-04-29T03:16:51.964Z,0.00
2019-04-29T03:17:51.950Z,0.00
2019-04-29T03:18:51.980Z,0.00
2019-04-29T03:19:51.932Z,0.00
2019-04-29T03:20:51.959Z,0.00
2019-04-29T03:21:51.912Z,0.00
2019-04-29T03:22:51.940Z,0.00
2019-04-29T03:23:51.886Z,0.00
2019-04-29T03:24:51.914Z,0.00
2019-04-29T03:25:51.860Z,0.00
2019-04-29T03:26:51.857Z,0.00
2019-04-29T03:27:51.865Z,0.00
2019-04-29T03:28:51.830Z,0.00
2019-04-29T03:29:51.819Z,0.00
2019-04-29T03:30:51.846Z,0.00
2019-04-29T03:31:51.840Z,0.00
2019-04-29T03:32:51.785Z,0.00
2019-04-29T03:33:51.773Z,0.00
2019-04-29T03:34:51.765Z,0.00
2019-04-29T03:35:51.768Z,0.00
2019-04-29T03:36:51.781Z,0.00
2019-04-29T03:37:51.738Z,0.00
2019-04-29T03:38:51.729Z,0.00
2019-04-29T03:39:51.751Z,0.00
2019-04-29T03:40:51.695Z,4.00
2019-04-29T03:41:51.685Z,4.00
2019-04-29T03:42:51.717Z,4.00
2019-04-29T03:43:51.663Z,0.00
2019-04-29T03:44:51.657Z,4.00
2019-04-29T03:45:51.640Z,4.00
2019-04-29T03:46:51.633Z,8.00
2019-04-29T03:47:51.659Z,4.00
2019-04-29T03:48:51.655Z,8.00
2019-04-29T03:49:51.595Z,8.00
2019-04-29T03:50:51.600Z,12.00
2019-04-29T03:51:51.574Z,12.00
2019-04-29T03:52:51.565Z,12.00
2019-04-29T03:53:51.552Z,16.00
2019-04-29T03:54:51.579Z,20.00
2019-04-29T03:55:51.529Z,20.00
2019-04-29T03:56:51.548Z,24.00
2019-04-29T03:57:51.506Z,28.00
2019-04-29T03:58:51.500Z,32.00
2019-04-29T03:59:51.486Z,36.00
2019-04-29T04:00:51.514Z,40.00
2019-04-29T04:01:51.463Z,48.00
2019-04-29T04:02:51.455Z,52.00
2019-04-29T04:03:51.439Z,56.00
2019-04-29T04:04:51.468Z,64.00
2019-04-29T04:05:51.461Z,72.00
2019-04-29T04:06:51.446Z,80.00
2019-04-29T04:07:51.398Z,88.00
2019-04-29T04:09:05.524Z,100.00
2019-04-29T04:09:52.375Z,108.00
2019-04-29T04:10:51.362Z,112.00
2019-04-29T04:11:51.394Z,128.00
2019-04-29T04:12:51.350Z,144.00
2019-04-29T04:13:51.364Z,160.00
2019-04-29T04:14:51.318Z,176.00
2019-04-29T04:15:51.306Z,196.00
2019-04-29T04:16:51.338Z,216.00
2019-04-29T04:17:51.291Z,236.00
2019-04-29T04:18:51.275Z,252.00
2019-04-29T04:19:51.263Z,264.00
2019-04-29T04:20:51.297Z,284.00
2019-04-29T04:21:51.240Z,300.00
2019-04-29T04:22:51.231Z,308.00
2019-04-29T04:23:51.218Z,332.00
2019-04-29T04:24:51.207Z,352.00
2019-04-29T04:25:51.197Z,376.00
2019-04-29T04:26:51.229Z,400.00
2019-04-29T04:27:51.218Z,428.00
2019-04-29T04:28:51.206Z,452.00
2019-04-29T04:29:51.156Z,472.00
2019-04-29T04:30:51.148Z,500.00
2019-04-29T04:31:51.132Z,520.00
2019-04-29T04:32:51.160Z,544.00
2019-04-29T04:33:51.107Z,560.00
2019-04-29T04:34:51.207Z,584.00
2019-04-29T04:35:51.085Z,612.00
2019-04-29T04:36:51.075Z,632.00
2019-04-29T04:37:51.060Z,656.00
2019-04-29T04:38:51.051Z,684.00
2019-04-29T04:39:51.039Z,716.00
2019-04-29T04:40:51.071Z,772.00
2019-04-29T04:41:51.058Z,820.00
2019-04-29T04:42:51.032Z,872.00
2019-04-29T04:43:51.070Z,912.00
2019-04-29T04:44:50.988Z,964.00
2019-04-29T04:45:50.975Z,988.00
2019-04-29T04:46:50.964Z,1036.00
2019-04-29T04:47:50.995Z,1100.00
2019-04-29T04:48:50.983Z,1136.00
2019-04-29T04:49:50.954Z,1164.00
2019-04-29T04:50:50.930Z,1184.00
2019-04-29T04:51:51.025Z,1220.00
2019-04-29T04:52:50.944Z,1260.00
2019-04-29T04:53:50.896Z,1292.00
2019-04-29T04:54:50.895Z,1332.00
2019-04-29T04:55:50.867Z,1368.00
2019-04-29T04:56:50.895Z,1404.00
2019-04-29T04:57:50.840Z,1480.00
2019-04-29T04:58:50.868Z,1580.00
2019-04-29T04:59:50.821Z,1652.00
2019-04-29T05:00:50.805Z,1696.00
2019-04-29T05:01:50.808Z,1716.00
2019-04-29T05:02:50.876Z,1736.00
2019-04-29T05:03:50.828Z,1768.00
2019-04-29T05:04:50.814Z,1796.00
2019-04-29T05:05:50.752Z,1792.00
2019-04-29T05:06:50.767Z,1860.00
2019-04-29T05:07:50.743Z,1864.00
2019-04-29T05:08:50.723Z,1868.00
2019-04-29T05:09:50.722Z,1872.00
2019-04-29T05:10:51.507Z,1900.00
2019-04-29T05:11:50.747Z,1876.00
2019-04-29T05:12:50.679Z,1924.00
2019-04-29T05:13:50.683Z,1976.00
2019-04-29T05:14:50.653Z,1888.00
2019-04-29T05:15:50.668Z,1952.00
2019-04-29T05:16:50.639Z,1952.00
2019-04-29T05:17:53.169Z,1968.00
2019-04-29T05:18:50.612Z,1996.00
2019-04-29T05:19:50.616Z,2028.00
2019-04-29T05:20:50.631Z,2068.00
2019-04-29T05:21:50.589Z,2080.00
2019-04-29T05:22:50.566Z,2144.00
2019-04-29T05:23:50.559Z,2192.00
2019-04-29T05:24:50.552Z,2408.00
2019-04-29T05:25:50.540Z,2520.00
2019-04-29T05:26:50.563Z,2616.00
2019-04-29T05:27:50.588Z,2660.00
2019-04-29T05:28:50.499Z,2736.00
2019-04-29T05:29:50.519Z,2764.00
2019-04-29T05:30:50.486Z,2812.00
2019-04-29T05:31:50.468Z,2872.00
2019-04-29T05:32:50.514Z,2940.00
2019-04-29T05:33:50.450Z,3092.00
2019-04-29T05:34:50.444Z,3116.00
2019-04-29T05:35:50.454Z,3208.00
2019-04-29T05:36:50.414Z,3300.00
2019-04-29T05:37:50.461Z,3296.00
2019-04-29T05:38:50.412Z,3504.00
2019-04-29T05:39:50.404Z,3696.00
2019-04-29T05:40:50.374Z,3516.00
2019-04-29T05:41:50.377Z,3392.00
2019-04-29T05:42:52.641Z,3304.00
2019-04-29T05:43:50.349Z,3484.00
2019-04-29T05:44:50.370Z,3440.00
2019-04-29T05:45:50.326Z,3368.00
2019-04-29T05:46:50.351Z,3468.00
2019-04-29T05:47:52.500Z,3364.00
2019-04-29T05:48:51.336Z,3500.00
2019-04-29T05:49:50.323Z,3560.00
2019-04-29T05:50:52.181Z,3796.00
2019-04-29T05:51:50.317Z,3620.00
2019-04-29T05:52:50.332Z,3532.00
2019-04-29T05:53:54.898Z,3392.00
2019-04-29T05:54:51.287Z,3552.00
2019-04-29T05:55:52.515Z,3560.00
2019-04-29T05:56:50.212Z,3684.00
2019-04-29T05:57:50.231Z,3612.00
2019-04-29T05:58:50.203Z,3544.00
2019-04-29T05:59:50.163Z,3556.00
2019-04-29T06:00:50.168Z,3680.00
2019-04-29T06:01:50.139Z,3904.00
2019-04-29T06:02:50.164Z,3952.00
2019-04-29T06:03:50.178Z,4068.00
2019-04-29T06:04:52.342Z,4084.00
2019-04-29T06:05:50.125Z,4344.00
2019-04-29T06:06:50.127Z,4196.00
2019-04-29T06:07:51.733Z,4156.00
2019-04-29T06:08:50.093Z,4128.00
2019-04-29T06:09:50.150Z,3752.00
2019-04-29T06:10:50.044Z,4176.00
2019-04-29T06:11:50.024Z,4588.00
2019-04-29T06:12:50.099Z,4948.00
2019-04-29T06:13:50.009Z,4824.00
2019-04-29T06:14:49.999Z,5064.00
2019-04-29T06:15:50.023Z,5336.00
2019-04-29T06:16:52.710Z,5316.00
2019-04-29T06:17:50.048Z,5124.00
2019-04-29T06:18:50.018Z,5112.00
2019-04-29T06:19:49.954Z,5048.00
2019-04-29T06:20:49.946Z,5004.00
2019-04-29T06:21:49.928Z,5156.00
2019-04-29T06:22:49.906Z,5324.00
2019-04-29T06:23:49.912Z,5276.00
2019-04-29T06:24:49.951Z,4904.00
2019-04-29T06:25:49.923Z,4872.00
2019-04-29T06:26:49.872Z,5172.00
2019-04-29T06:27:49.871Z,5504.00
2019-04-29T06:28:49.874Z,5652.00
2019-04-29T06:29:49.890Z,5604.00
2019-04-29T06:30:51.606Z,5688.00
2019-04-29T06:31:49.884Z,5708.00
2019-04-29T06:32:49.796Z,5720.00
2019-04-29T06:33:49.787Z,5600.00
2019-04-29T06:34:49.803Z,5616.00
2019-04-29T06:35:49.766Z,5848.00
2019-04-29T06:36:49.976Z,5932.00
2019-04-29T06:37:49.798Z,5948.00
2019-04-29T06:38:49.744Z,5832.00
2019-04-29T06:39:49.943Z,5576.00
2019-04-29T06:40:49.731Z,5272.00
2019-04-29T06:41:49.774Z,5016.00
2019-04-29T06:42:53.454Z,4752.00
2019-04-29T06:43:54.169Z,4632.00
2019-04-29T06:44:50.800Z,4636.00
2019-04-29T06:45:49.681Z,4716.00
2019-04-29T06:46:50.221Z,4744.00
2019-04-29T06:47:49.697Z,4760.00
2019-04-29T06:48:49.693Z,4788.00
2019-04-29T06:49:49.626Z,4840.00
2019-04-29T06:50:49.906Z,4876.00
2019-04-29T06:51:49.681Z,4936.00
2019-04-29T06:52:49.605Z,4980.00
2019-04-29T06:53:49.630Z,5004.00
2019-04-29T06:54:49.606Z,5020.00
2019-04-29T06:55:49.614Z,5032.00
2019-04-29T06:56:49.542Z,5032.00
2019-04-29T06:57:49.516Z,5024.00
2019-04-29T06:58:49.549Z,5008.00
2019-04-29T06:59:49.596Z,4984.00
2019-04-29T07:00:51.087Z,4968.00
2019-04-29T07:01:49.485Z,4936.00
2019-04-29T07:02:49.986Z,4928.00
2019-04-29T07:03:49.497Z,4896.00
2019-04-29T07:04:49.468Z,4836.00
2019-04-29T07:05:51.549Z,4756.00
2019-04-29T07:06:57.284Z,4832.00
2019-04-29T07:07:50.420Z,4880.00
2019-04-29T07:08:49.405Z,4884.00
2019-04-29T07:09:49.414Z,4888.00
2019-04-29T07:10:49.434Z,4936.00
2019-04-29T07:11:49.363Z,4952.00
2019-04-29T07:12:49.355Z,4968.00
2019-04-29T07:13:49.468Z,4984.00
2019-04-29T07:14:49.332Z,4984.00
2019-04-29T07:15:49.329Z,4984.00
2019-04-29T07:16:49.364Z,4980.00
2019-04-29T07:17:49.312Z,4976.00
2019-04-29T07:18:53.416Z,4968.00
2019-04-29T07:19:49.276Z,4972.00
2019-04-29T07:20:49.288Z,4968.00
2019-04-29T07:21:53.242Z,4964.00
2019-04-29T07:22:50.292Z,4964.00
2019-04-29T07:23:49.287Z,4976.00
2019-04-29T07:24:49.223Z,4984.00
2019-04-29T07:25:49.213Z,4972.00
2019-04-29T07:26:49.208Z,4960.00
2019-04-29T07:27:49.573Z,4952.00
2019-04-29T07:28:53.174Z,4964.00
2019-04-29T07:29:49.209Z,4964.00
2019-04-29T07:31:01.174Z,4968.00
2019-04-29T07:31:50.150Z,4968.00
2019-04-29T07:32:49.137Z,4960.00
2019-04-29T07:33:49.134Z,4980.00
2019-04-29T07:34:49.121Z,4988.00
2019-04-29T07:35:49.650Z,4980.00
2019-04-29T07:36:49.226Z,4972.00
2019-04-29T07:37:49.474Z,4972.00
2019-04-29T07:38:51.666Z,4980.00
2019-04-29T07:39:51.008Z,4996.00
2019-04-29T07:40:50.041Z,4988.00
2019-04-29T07:41:49.494Z,4976.00
2019-04-29T07:42:49.521Z,4936.00
2019-04-29T07:43:49.043Z,4924.00
2019-04-29T07:44:52.812Z,4928.00
2019-04-29T07:45:49.011Z,4940.00
2019-04-29T07:46:57.075Z,4956.00
2019-04-29T07:47:56.734Z,4960.00
2019-04-29T07:49:00.688Z,4972.00
2019-04-29T07:49:51.492Z,4984.00
2019-04-29T07:50:49.036Z,5000.00
2019-04-29T07:51:49.043Z,5008.00
2019-04-29T07:52:49.969Z,5000.00
2019-04-29T07:53:48.971Z,4992.00
2019-04-29T07:54:54.936Z,4996.00
2019-04-29T07:55:49.891Z,5008.00
2019-04-29T07:56:48.878Z,5024.00
2019-04-29T07:57:52.191Z,5028.00
2019-04-29T07:58:48.845Z,5028.00
2019-04-29T07:59:48.833Z,5028.00
2019-04-29T08:00:49.961Z,5028.00
2019-04-29T08:01:48.875Z,5020.00
2019-04-29T08:02:48.895Z,5012.00
2019-04-29T08:03:48.844Z,5012.00
2019-04-29T08:04:48.917Z,5008.00
2019-04-29T08:05:48.773Z,5000.00
2019-04-29T08:06:48.840Z,5008.00
2019-04-29T08:07:49.025Z,5004.00
2019-04-29T08:08:55.053Z,5008.00
2019-04-29T08:09:49.768Z,5012.00
2019-04-29T08:10:56.190Z,5016.00
2019-04-29T08:11:49.872Z,5020.00
2019-04-29T08:12:48.694Z,5020.00
2019-04-29T08:13:48.756Z,5016.00
2019-04-29T08:14:48.714Z,5020.00
2019-04-29T08:15:48.659Z,5024.00
2019-04-29T08:16:48.680Z,5036.00
2019-04-29T08:17:51.346Z,5028.00
2019-04-29T08:18:49.611Z,5020.00
2019-04-29T08:19:48.634Z,5012.00
2019-04-29T08:20:48.647Z,5024.00
2019-04-29T08:21:49.721Z,5028.00
2019-04-29T08:22:48.627Z,5036.00
2019-04-29T08:23:48.720Z,5036.00
2019-04-29T08:24:50.425Z,5040.00
2019-04-29T08:25:50.930Z,5052.00
2019-04-29T08:26:48.596Z,5056.00
2019-04-29T08:27:48.698Z,5068.00
2019-04-29T08:28:48.521Z,5008.00
2019-04-29T08:29:48.553Z,4968.00
2019-04-29T08:30:48.527Z,4928.00
2019-04-29T08:31:52.041Z,4992.00
2019-04-29T08:32:50.728Z,5036.00
2019-04-29T08:33:48.620Z,5056.00
2019-04-29T08:34:48.450Z,5100.00
2019-04-29T08:35:48.452Z,5128.00
2019-04-29T08:36:48.500Z,5144.00
2019-04-29T08:37:48.420Z,5156.00
2019-04-29T08:38:48.409Z,5160.00
2019-04-29T08:40:03.497Z,5160.00
2019-04-29T08:40:50.502Z,5148.00
2019-04-29T08:41:48.410Z,5148.00
2019-04-29T08:42:48.495Z,5140.00
2019-04-29T08:43:48.363Z,5140.00
2019-04-29T08:44:48.359Z,5148.00
2019-04-29T08:45:48.350Z,5164.00
2019-04-29T08:46:51.741Z,5172.00
2019-04-29T08:47:48.309Z,5184.00
2019-04-29T08:48:48.339Z,5188.00
2019-04-29T08:49:48.282Z,5188.00
2019-04-29T08:50:48.268Z,5192.00
2019-04-29T08:51:48.314Z,5192.00
2019-04-29T08:52:48.377Z,5192.00
2019-04-29T08:53:48.371Z,5184.00
2019-04-29T08:54:50.870Z,5200.00
2019-04-29T08:55:49.267Z,5212.00
2019-04-29T08:57:02.327Z,5216.00
2019-04-29T08:57:50.169Z,5220.00
2019-04-29T08:58:50.994Z,5224.00
2019-04-29T08:59:48.568Z,5228.00
2019-04-29T09:00:57.674Z,5236.00
2019-04-29T09:01:48.274Z,5256.00
2019-04-29T09:02:49.376Z,5268.00
2019-04-29T09:03:48.773Z,5276.00
2019-04-29T09:04:53.727Z,5288.00
2019-04-29T09:06:03.962Z,5304.00
2019-04-29T09:06:49.307Z,5316.00
2019-04-29T09:07:48.165Z,5332.00
2019-04-29T09:08:56.210Z,5360.00
2019-04-29T09:09:49.119Z,5384.00
2019-04-29T09:10:48.150Z,5396.00
2019-04-29T09:11:49.422Z,5420.00
2019-04-29T09:12:48.689Z,5424.00
2019-04-29T09:13:48.035Z,5440.00
2019-04-29T09:14:48.105Z,5444.00
2019-04-29T09:15:48.074Z,5444.00
2019-04-29T09:16:48.209Z,5468.00
2019-04-29T09:17:48.010Z,5484.00
2019-04-29T09:18:48.099Z,5520.00
2019-04-29T09:19:49.625Z,5596.00
2019-04-29T09:20:47.951Z,5624.00
2019-04-29T09:21:49.399Z,5632.00
2019-04-29T09:22:47.925Z,5644.00
2019-04-29T09:23:47.953Z,5660.00
2019-04-29T09:24:49.429Z,5692.00
2019-04-29T09:26:01.715Z,5728.00
2019-04-29T09:26:48.932Z,5796.00
2019-04-29T09:27:47.944Z,5856.00
2019-04-29T09:28:49.709Z,5888.00
2019-04-29T09:29:58.904Z,5912.00
2019-04-29T09:30:48.928Z,5932.00
2019-04-29T09:31:47.820Z,5904.00
2019-04-29T09:32:47.845Z,5872.00
2019-04-29T09:33:49.067Z,5824.00
2019-04-29T09:34:49.043Z,5788.00
2019-04-29T09:35:59.281Z,5836.00
2019-04-29T09:36:49.803Z,5828.00
2019-04-29T09:37:49.393Z,5900.00
2019-04-29T09:38:50.255Z,5956.00
2019-04-29T09:39:47.811Z,6008.00
2019-04-29T09:40:48.269Z,6012.00
2019-04-29T09:41:47.697Z,5964.00
2019-04-29T09:42:50.175Z,5924.00
2019-04-29T09:43:47.746Z,6040.00
2019-04-29T09:44:47.681Z,6100.00
2019-04-29T09:45:47.675Z,6116.00
2019-04-29T09:46:47.642Z,6132.00
2019-04-29T09:47:47.714Z,6168.00
2019-04-29T09:48:47.657Z,6212.00
2019-04-29T09:49:47.635Z,6208.00
2019-04-29T09:50:47.591Z,6216.00
2019-04-29T09:51:47.586Z,6184.00
2019-04-29T09:52:48.568Z,6140.00
2019-04-29T09:53:47.580Z,6092.00
2019-04-29T09:54:47.587Z,6172.00
2019-04-29T09:55:47.544Z,6252.00
2019-04-29T09:56:48.361Z,6284.00
2019-04-29T09:57:47.528Z,6332.00
2019-04-29T09:58:47.761Z,6360.00
2019-04-29T09:59:47.577Z,6408.00
2019-04-29T10:00:47.525Z,6456.00
2019-04-29T10:01:50.561Z,6492.00
2019-04-29T10:02:48.704Z,6472.00
2019-04-29T10:03:47.472Z,6484.00
2019-04-29T10:04:56.339Z,6496.00
2019-04-29T10:05:48.431Z,6508.00
2019-04-29T10:06:47.417Z,6536.00
2019-04-29T10:07:47.414Z,6600.00
2019-04-29T10:08:47.450Z,6684.00
2019-04-29T10:09:57.112Z,6772.00
2019-04-29T10:10:48.627Z,6848.00
2019-04-29T10:11:47.677Z,6912.00
2019-04-29T10:12:47.338Z,6980.00
2019-04-29T10:13:47.326Z,7040.00
2019-04-29T10:14:47.369Z,7072.00
2019-04-29T10:15:47.329Z,7096.00
2019-04-29T10:16:49.872Z,7184.00
2019-04-29T10:17:50.804Z,7308.00
2019-04-29T10:18:48.268Z,7404.00
2019-04-29T10:19:47.299Z,7352.00
2019-04-29T10:20:47.322Z,7144.00
2019-04-29T10:21:47.255Z,7312.00
2019-04-29T10:22:50.203Z,7248.00
2019-04-29T10:23:48.214Z,7280.00
2019-04-29T10:24:47.224Z,7332.00
2019-04-29T10:25:47.248Z,7468.00
2019-04-29T10:26:47.352Z,7604.00
2019-04-29T10:27:47.232Z,7808.00
2019-04-29T10:28:47.154Z,7876.00
2019-04-29T10:29:50.775Z,7776.00
2019-04-29T10:30:48.166Z,7976.00
2019-04-29T10:31:47.190Z,8068.00
2019-04-29T10:32:47.223Z,8228.00
2019-04-29T10:33:50.224Z,8404.00
2019-04-29T10:34:48.214Z,8568.00
2019-04-29T10:35:47.156Z,8672.00
2019-04-29T10:36:47.064Z,8624.00
2019-04-29T10:37:47.102Z,8716.00
2019-04-29T10:38:47.167Z,8688.00
2019-04-29T10:39:47.148Z,8764.00
2019-04-29T10:40:47.093Z,8740.00
2019-04-29T10:41:47.007Z,8812.00
2019-04-29T10:42:47.046Z,9348.00
2019-04-29T10:43:49.475Z,9480.00
2019-04-29T10:44:48.028Z,9612.00
2019-04-29T10:45:46.972Z,9704.00
2019-04-29T10:46:46.997Z,10088.00
2019-04-29T10:47:46.941Z,10432.00
2019-04-29T10:48:46.946Z,10700.00
2019-04-29T10:49:49.641Z,11160.00
2019-04-29T10:50:51.597Z,11360.00
2019-04-29T10:51:47.955Z,11668.00
2019-04-29T10:52:46.901Z,11036.00
2019-04-29T10:53:51.034Z,11340.00
2019-04-29T10:54:51.247Z,11752.00
2019-04-29T10:55:48.789Z,12392.00
2019-04-29T10:56:47.241Z,12392.00
2019-04-29T10:57:49.727Z,12684.00
2019-04-29T10:58:46.822Z,12888.00
2019-04-29T10:59:50.027Z,11272.00
2019-04-29T11:00:46.815Z,13008.00
2019-04-29T11:01:54.634Z,12900.00
2019-04-29T11:02:49.401Z,13168.00
2019-04-29T11:03:46.771Z,13396.00
2019-04-29T11:04:46.760Z,14052.00
2019-04-29T11:06:00.106Z,14488.00
2019-04-29T11:06:47.804Z,14544.00
2019-04-29T11:07:46.816Z,14420.00
2019-04-29T11:08:46.709Z,13216.00
2019-04-29T11:09:50.829Z,14260.00
2019-04-29T11:10:47.693Z,12808.00
2019-04-29T11:11:46.714Z,11920.00
2019-04-29T11:12:46.680Z,11236.00
2019-04-29T11:13:50.333Z,10552.00
2019-04-29T11:14:46.664Z,10096.00
2019-04-29T11:15:49.431Z,9712.00
2019-04-29T11:16:47.114Z,9772.00
2019-04-29T11:17:46.694Z,9616.00
2019-04-29T11:18:46.594Z,9772.00
2019-04-29T11:19:46.647Z,10076.00
2019-04-29T11:20:48.833Z,10536.00
2019-04-29T11:21:47.623Z,11108.00
2019-04-29T11:22:46.754Z,11904.00
2019-04-29T11:23:50.558Z,12636.00
2019-04-29T11:24:47.656Z,15660.00
2019-04-29T11:25:50.988Z,16280.00
2019-04-29T11:26:46.631Z,16340.00
2019-04-29T11:27:46.649Z,16864.00
2019-04-29T11:28:46.977Z,16100.00
2019-04-29T11:29:46.543Z,15768.00
2019-04-29T11:30:49.446Z,16264.00
2019-04-29T11:31:49.104Z,16356.00
2019-04-29T11:32:48.188Z,15928.00
2019-04-29T11:33:46.475Z,15464.00
2019-04-29T11:34:48.340Z,14672.00
2019-04-29T11:35:47.444Z,14596.00
2019-04-29T11:36:46.436Z,14460.00
2019-04-29T11:37:50.070Z,14396.00
2019-04-29T11:38:47.447Z,14856.00
2019-04-29T11:39:50.216Z,14692.00
2019-04-29T11:40:47.349Z,15180.00
2019-04-29T11:41:47.287Z,15660.00
2019-04-29T11:42:46.353Z,15920.00
2019-04-29T11:43:50.463Z,15480.00
2019-04-29T11:44:46.351Z,15736.00
2019-04-29T11:45:46.444Z,15844.00
2019-04-29T11:46:48.980Z,15328.00
2019-04-29T11:47:46.432Z,15156.00
2019-04-29T11:48:46.362Z,15444.00
2019-04-29T11:49:47.917Z,14564.00
2019-04-29T11:50:50.163Z,14972.00
2019-04-29T11:52:07.919Z,15036.00
2019-04-29T11:52:47.458Z,15812.00
2019-04-29T11:53:46.287Z,16800.00
2019-04-29T11:54:46.208Z,17632.00
2019-04-29T11:55:46.516Z,17920.00
2019-04-29T11:56:46.220Z,18016.00
2019-04-29T11:57:46.155Z,17376.00
2019-04-29T11:58:46.156Z,17344.00
2019-04-29T11:59:46.220Z,14596.00
2019-04-29T12:00:46.959Z,14984.00
2019-04-29T12:01:50.925Z,16116.00
2019-04-29T12:02:47.107Z,15756.00
2019-04-29T12:03:46.103Z,15444.00
2019-04-29T12:04:46.102Z,14572.00
2019-04-29T12:05:46.336Z,15264.00
2019-04-29T12:06:46.067Z,15104.00
2019-04-29T12:07:46.055Z,14920.00
2019-04-29T12:08:48.126Z,14968.00
2019-04-29T12:09:47.024Z,15100.00
2019-04-29T12:10:51.805Z,15520.00
2019-04-29T12:11:47.002Z,15552.00
2019-04-29T12:12:47.701Z,16076.00
2019-04-29T12:13:45.998Z,16264.00
2019-04-29T12:14:45.993Z,15808.00
2019-04-29T12:15:49.231Z,13072.00
2019-04-29T12:16:46.001Z,11712.00
2019-04-29T12:17:45.963Z,13204.00
2019-04-29T12:18:45.934Z,11892.00
2019-04-29T12:19:45.964Z,12320.00
2019-04-29T12:20:45.910Z,13888.00
2019-04-29T12:21:45.906Z,15912.00
2019-04-29T12:22:48.709Z,15632.00
2019-04-29T12:23:47.669Z,16028.00
2019-04-29T12:24:46.860Z,16992.00
2019-04-29T12:25:45.840Z,16640.00
2019-04-29T12:26:45.898Z,16608.00